<?xml version="1.0" encoding="UTF-8" standalone="no" ?>
<gpx xmlns="http://www.topografix.com/GPX/1/1" xmlns:xsi="http://www.w3.org/2001/XMLSchema-instance" xsi:schemaLocation="http://www.topografix.com/GPX/1/1 http://www.topografix.com/GPX/1/1/gpx.xsd" version="1.1" creator="VisuGPX - https://www.visugpx.com">
  <metadata>
    <name>Deux boucles à Puymaurin avec vue sur les Pyrénées</name>
    <desc><![CDATA[[b]Deux boucles à Puymaurin avec vue sur les Pyrénées[/b]]]></desc>
  </metadata>
  <trk>
    <name><![CDATA[Deux boucles à Puymaurin avec vue sur les Pyrénées]]></name>
    <trkseg>
      <trkpt lat="43.37327" lon="0.76455">
        <ele>280</ele>
        <time>2020-08-16T09:31:07+02:00</time>
      </trkpt>
      <trkpt lat="43.37336" lon="0.76428">
        <ele>282</ele>
        <time>2020-08-16T09:35:18+02:00</time>
      </trkpt>
      <trkpt lat="43.37354" lon="0.76433">
        <ele>281</ele>
        <time>2020-08-16T09:36:04+02:00</time>
      </trkpt>
      <trkpt lat="43.37358" lon="0.76423">
        <ele>282</ele>
        <time>2020-08-16T09:36:22+02:00</time>
      </trkpt>
      <trkpt lat="43.37367" lon="0.76411">
        <ele>281</ele>
        <time>2020-08-16T09:36:41+02:00</time>
      </trkpt>
      <trkpt lat="43.3738" lon="0.76393">
        <ele>279</ele>
        <time>2020-08-16T09:37:01+02:00</time>
      </trkpt>
      <trkpt lat="43.37377" lon="0.76366">
        <ele>282</ele>
        <time>2020-08-16T09:37:24+02:00</time>
      </trkpt>
      <trkpt lat="43.3737" lon="0.76337">
        <ele>285</ele>
        <time>2020-08-16T09:37:44+02:00</time>
      </trkpt>
      <trkpt lat="43.37361" lon="0.7631">
        <ele>289</ele>
        <time>2020-08-16T09:38:04+02:00</time>
      </trkpt>
      <trkpt lat="43.37357" lon="0.76291">
        <ele>287</ele>
        <time>2020-08-16T09:38:21+02:00</time>
      </trkpt>
      <trkpt lat="43.37344" lon="0.76301">
        <ele>288</ele>
        <time>2020-08-16T09:39:49+02:00</time>
      </trkpt>
      <trkpt lat="43.37329" lon="0.76325">
        <ele>286</ele>
        <time>2020-08-16T09:40:12+02:00</time>
      </trkpt>
      <trkpt lat="43.37323" lon="0.76345">
        <ele>285</ele>
        <time>2020-08-16T09:40:32+02:00</time>
      </trkpt>
      <trkpt lat="43.37323" lon="0.76364">
        <ele>284</ele>
        <time>2020-08-16T09:40:54+02:00</time>
      </trkpt>
      <trkpt lat="43.37322" lon="0.76381">
        <ele>283</ele>
        <time>2020-08-16T09:41:22+02:00</time>
      </trkpt>
      <trkpt lat="43.37308" lon="0.76408">
        <ele>280</ele>
        <time>2020-08-16T09:41:46+02:00</time>
      </trkpt>
      <trkpt lat="43.37293" lon="0.76425">
        <ele>278</ele>
        <time>2020-08-16T09:42:04+02:00</time>
      </trkpt>
      <trkpt lat="43.37271" lon="0.76438">
        <ele>275</ele>
        <time>2020-08-16T09:42:25+02:00</time>
      </trkpt>
      <trkpt lat="43.37249" lon="0.76444">
        <ele>272</ele>
        <time>2020-08-16T09:42:42+02:00</time>
      </trkpt>
      <trkpt lat="43.37228" lon="0.76449">
        <ele>268</ele>
        <time>2020-08-16T09:42:59+02:00</time>
      </trkpt>
      <trkpt lat="43.37213" lon="0.76459">
        <ele>267</ele>
        <time>2020-08-16T09:43:15+02:00</time>
      </trkpt>
      <trkpt lat="43.37196" lon="0.76468">
        <ele>265</ele>
        <time>2020-08-16T09:43:34+02:00</time>
      </trkpt>
      <trkpt lat="43.37171" lon="0.76472">
        <ele>262</ele>
        <time>2020-08-16T09:43:54+02:00</time>
      </trkpt>
      <trkpt lat="43.37152" lon="0.76463">
        <ele>261</ele>
        <time>2020-08-16T09:44:10+02:00</time>
      </trkpt>
      <trkpt lat="43.37142" lon="0.76462">
        <ele>261</ele>
        <time>2020-08-16T09:44:26+02:00</time>
      </trkpt>
      <trkpt lat="43.37136" lon="0.76486">
        <ele>261</ele>
        <time>2020-08-16T09:44:43+02:00</time>
      </trkpt>
      <trkpt lat="43.37129" lon="0.76511">
        <ele>260</ele>
        <time>2020-08-16T09:45:01+02:00</time>
      </trkpt>
      <trkpt lat="43.37121" lon="0.76538">
        <ele>260</ele>
        <time>2020-08-16T09:45:21+02:00</time>
      </trkpt>
      <trkpt lat="43.37111" lon="0.76571">
        <ele>259</ele>
        <time>2020-08-16T09:45:42+02:00</time>
      </trkpt>
      <trkpt lat="43.37103" lon="0.76597">
        <ele>259</ele>
        <time>2020-08-16T09:46:00+02:00</time>
      </trkpt>
      <trkpt lat="43.37101" lon="0.76602">
        <ele>259</ele>
        <time>2020-08-16T09:46:03+02:00</time>
      </trkpt>
      <trkpt lat="43.37087" lon="0.76622">
        <ele>257</ele>
        <time>2020-08-16T09:46:20+02:00</time>
      </trkpt>
      <trkpt lat="43.37072" lon="0.76632">
        <ele>256</ele>
        <time>2020-08-16T09:46:35+02:00</time>
      </trkpt>
      <trkpt lat="43.3705" lon="0.76649">
        <ele>254</ele>
        <time>2020-08-16T09:46:56+02:00</time>
      </trkpt>
      <trkpt lat="43.37046" lon="0.76675">
        <ele>253</ele>
        <time>2020-08-16T09:47:12+02:00</time>
      </trkpt>
      <trkpt lat="43.37043" lon="0.76705">
        <ele>253</ele>
        <time>2020-08-16T09:47:30+02:00</time>
      </trkpt>
      <trkpt lat="43.37038" lon="0.76739">
        <ele>254</ele>
        <time>2020-08-16T09:47:50+02:00</time>
      </trkpt>
      <trkpt lat="43.37034" lon="0.76764">
        <ele>255</ele>
        <time>2020-08-16T09:48:07+02:00</time>
      </trkpt>
      <trkpt lat="43.3703" lon="0.7679">
        <ele>256</ele>
        <time>2020-08-16T09:48:23+02:00</time>
      </trkpt>
      <trkpt lat="43.37026" lon="0.7682">
        <ele>256</ele>
        <time>2020-08-16T09:48:42+02:00</time>
      </trkpt>
      <trkpt lat="43.37023" lon="0.76849">
        <ele>258</ele>
        <time>2020-08-16T09:49:00+02:00</time>
      </trkpt>
      <trkpt lat="43.37021" lon="0.76877">
        <ele>259</ele>
        <time>2020-08-16T09:49:16+02:00</time>
      </trkpt>
      <trkpt lat="43.37018" lon="0.76904">
        <ele>260</ele>
        <time>2020-08-16T09:49:33+02:00</time>
      </trkpt>
      <trkpt lat="43.37017" lon="0.76915">
        <ele>260</ele>
        <time>2020-08-16T09:49:40+02:00</time>
      </trkpt>
      <trkpt lat="43.37015" lon="0.76936">
        <ele>261</ele>
        <time>2020-08-16T09:49:55+02:00</time>
      </trkpt>
      <trkpt lat="43.37013" lon="0.76959">
        <ele>261</ele>
        <time>2020-08-16T09:50:11+02:00</time>
      </trkpt>
      <trkpt lat="43.37009" lon="0.76987">
        <ele>262</ele>
        <time>2020-08-16T09:50:29+02:00</time>
      </trkpt>
      <trkpt lat="43.37006" lon="0.77015">
        <ele>263</ele>
        <time>2020-08-16T09:50:47+02:00</time>
      </trkpt>
      <trkpt lat="43.37006" lon="0.77043">
        <ele>264</ele>
        <time>2020-08-16T09:51:06+02:00</time>
      </trkpt>
      <trkpt lat="43.37007" lon="0.77067">
        <ele>264</ele>
        <time>2020-08-16T09:51:23+02:00</time>
      </trkpt>
      <trkpt lat="43.37008" lon="0.77078">
        <ele>264</ele>
        <time>2020-08-16T09:51:29+02:00</time>
      </trkpt>
      <trkpt lat="43.37012" lon="0.77102">
        <ele>265</ele>
        <time>2020-08-16T09:51:45+02:00</time>
      </trkpt>
      <trkpt lat="43.37015" lon="0.77125">
        <ele>265</ele>
        <time>2020-08-16T09:52:02+02:00</time>
      </trkpt>
      <trkpt lat="43.37018" lon="0.77153">
        <ele>265</ele>
        <time>2020-08-16T09:52:20+02:00</time>
      </trkpt>
      <trkpt lat="43.37023" lon="0.77179">
        <ele>265</ele>
        <time>2020-08-16T09:52:36+02:00</time>
      </trkpt>
      <trkpt lat="43.37023" lon="0.77184">
        <ele>265</ele>
        <time>2020-08-16T09:52:39+02:00</time>
      </trkpt>
      <trkpt lat="43.37025" lon="0.77213">
        <ele>264</ele>
        <time>2020-08-16T09:52:56+02:00</time>
      </trkpt>
      <trkpt lat="43.37029" lon="0.77245">
        <ele>263</ele>
        <time>2020-08-16T09:53:15+02:00</time>
      </trkpt>
      <trkpt lat="43.37029" lon="0.7728">
        <ele>263</ele>
        <time>2020-08-16T09:53:36+02:00</time>
      </trkpt>
      <trkpt lat="43.37027" lon="0.7731">
        <ele>262</ele>
        <time>2020-08-16T09:53:52+02:00</time>
      </trkpt>
      <trkpt lat="43.37031" lon="0.77333">
        <ele>262</ele>
        <time>2020-08-16T09:54:08+02:00</time>
      </trkpt>
      <trkpt lat="43.37031" lon="0.77346">
        <ele>262</ele>
        <time>2020-08-16T09:54:17+02:00</time>
      </trkpt>
      <trkpt lat="43.37021" lon="0.77375">
        <ele>260</ele>
        <time>2020-08-16T09:54:37+02:00</time>
      </trkpt>
      <trkpt lat="43.37013" lon="0.77404">
        <ele>259</ele>
        <time>2020-08-16T09:54:56+02:00</time>
      </trkpt>
      <trkpt lat="43.37004" lon="0.77437">
        <ele>257</ele>
        <time>2020-08-16T09:55:17+02:00</time>
      </trkpt>
      <trkpt lat="43.36995" lon="0.77469">
        <ele>254</ele>
        <time>2020-08-16T09:55:38+02:00</time>
      </trkpt>
      <trkpt lat="43.36987" lon="0.77494">
        <ele>252</ele>
        <time>2020-08-16T09:55:55+02:00</time>
      </trkpt>
      <trkpt lat="43.36978" lon="0.77528">
        <ele>251</ele>
        <time>2020-08-16T09:56:18+02:00</time>
      </trkpt>
      <trkpt lat="43.3697" lon="0.77558">
        <ele>249</ele>
        <time>2020-08-16T09:56:38+02:00</time>
      </trkpt>
      <trkpt lat="43.36966" lon="0.77588">
        <ele>247</ele>
        <time>2020-08-16T09:56:56+02:00</time>
      </trkpt>
      <trkpt lat="43.36963" lon="0.77609">
        <ele>246</ele>
        <time>2020-08-16T09:57:15+02:00</time>
      </trkpt>
      <trkpt lat="43.36957" lon="0.77634">
        <ele>244</ele>
        <time>2020-08-16T09:57:33+02:00</time>
      </trkpt>
      <trkpt lat="43.36954" lon="0.77653">
        <ele>243</ele>
        <time>2020-08-16T09:57:47+02:00</time>
      </trkpt>
      <trkpt lat="43.36949" lon="0.77679">
        <ele>241</ele>
        <time>2020-08-16T09:58:04+02:00</time>
      </trkpt>
      <trkpt lat="43.36941" lon="0.77706">
        <ele>240</ele>
        <time>2020-08-16T10:00:53+02:00</time>
      </trkpt>
      <trkpt lat="43.36938" lon="0.77721">
        <ele>239</ele>
        <time>2020-08-16T10:01:05+02:00</time>
      </trkpt>
      <trkpt lat="43.36933" lon="0.77748">
        <ele>237</ele>
        <time>2020-08-16T10:01:26+02:00</time>
      </trkpt>
      <trkpt lat="43.36927" lon="0.77783">
        <ele>235</ele>
        <time>2020-08-16T10:01:47+02:00</time>
      </trkpt>
      <trkpt lat="43.36921" lon="0.77816">
        <ele>233</ele>
        <time>2020-08-16T10:02:08+02:00</time>
      </trkpt>
      <trkpt lat="43.36915" lon="0.7785">
        <ele>232</ele>
        <time>2020-08-16T10:02:29+02:00</time>
      </trkpt>
      <trkpt lat="43.36909" lon="0.77881">
        <ele>231</ele>
        <time>2020-08-16T10:02:47+02:00</time>
      </trkpt>
      <trkpt lat="43.36906" lon="0.77914">
        <ele>229</ele>
        <time>2020-08-16T10:03:07+02:00</time>
      </trkpt>
      <trkpt lat="43.36901" lon="0.77949">
        <ele>226</ele>
        <time>2020-08-16T10:03:29+02:00</time>
      </trkpt>
      <trkpt lat="43.36899" lon="0.77977">
        <ele>225</ele>
        <time>2020-08-16T10:03:47+02:00</time>
      </trkpt>
      <trkpt lat="43.36898" lon="0.77991">
        <ele>224</ele>
        <time>2020-08-16T10:03:56+02:00</time>
      </trkpt>
      <trkpt lat="43.36898" lon="0.78016">
        <ele>222</ele>
        <time>2020-08-16T10:04:12+02:00</time>
      </trkpt>
      <trkpt lat="43.36897" lon="0.78045">
        <ele>221</ele>
        <time>2020-08-16T10:04:29+02:00</time>
      </trkpt>
      <trkpt lat="43.36893" lon="0.78068">
        <ele>220</ele>
        <time>2020-08-16T10:04:46+02:00</time>
      </trkpt>
      <trkpt lat="43.36894" lon="0.78092">
        <ele>220</ele>
        <time>2020-08-16T10:05:02+02:00</time>
      </trkpt>
      <trkpt lat="43.36898" lon="0.78122">
        <ele>219</ele>
        <time>2020-08-16T10:05:21+02:00</time>
      </trkpt>
      <trkpt lat="43.36903" lon="0.78148">
        <ele>219</ele>
        <time>2020-08-16T10:05:37+02:00</time>
      </trkpt>
      <trkpt lat="43.36907" lon="0.78176">
        <ele>219</ele>
        <time>2020-08-16T10:05:55+02:00</time>
      </trkpt>
      <trkpt lat="43.36907" lon="0.78207">
        <ele>218</ele>
        <time>2020-08-16T10:06:27+02:00</time>
      </trkpt>
      <trkpt lat="43.36907" lon="0.78228">
        <ele>218</ele>
        <time>2020-08-16T10:06:42+02:00</time>
      </trkpt>
      <trkpt lat="43.3691" lon="0.78249">
        <ele>218</ele>
        <time>2020-08-16T10:06:57+02:00</time>
      </trkpt>
      <trkpt lat="43.36915" lon="0.78273">
        <ele>217</ele>
        <time>2020-08-16T10:07:12+02:00</time>
      </trkpt>
      <trkpt lat="43.36918" lon="0.78302">
        <ele>217</ele>
        <time>2020-08-16T10:07:28+02:00</time>
      </trkpt>
      <trkpt lat="43.3692" lon="0.78317">
        <ele>217</ele>
        <time>2020-08-16T10:07:38+02:00</time>
      </trkpt>
      <trkpt lat="43.36925" lon="0.78342">
        <ele>217</ele>
        <time>2020-08-16T10:07:53+02:00</time>
      </trkpt>
      <trkpt lat="43.36922" lon="0.78365">
        <ele>216</ele>
        <time>2020-08-16T10:08:07+02:00</time>
      </trkpt>
      <trkpt lat="43.36906" lon="0.78379">
        <ele>215</ele>
        <time>2020-08-16T10:09:02+02:00</time>
      </trkpt>
      <trkpt lat="43.36886" lon="0.78391">
        <ele>214</ele>
        <time>2020-08-16T10:09:21+02:00</time>
      </trkpt>
      <trkpt lat="43.36866" lon="0.78386">
        <ele>214</ele>
        <time>2020-08-16T10:09:40+02:00</time>
      </trkpt>
      <trkpt lat="43.36852" lon="0.78368">
        <ele>215</ele>
        <time>2020-08-16T10:10:05+02:00</time>
      </trkpt>
      <trkpt lat="43.36848" lon="0.78364">
        <ele>216</ele>
        <time>2020-08-16T10:10:09+02:00</time>
      </trkpt>
      <trkpt lat="43.36831" lon="0.78351">
        <ele>218</ele>
        <time>2020-08-16T10:10:27+02:00</time>
      </trkpt>
      <trkpt lat="43.36818" lon="0.78339">
        <ele>219</ele>
        <time>2020-08-16T10:10:44+02:00</time>
      </trkpt>
      <trkpt lat="43.3681" lon="0.78327">
        <ele>220</ele>
        <time>2020-08-16T10:11:00+02:00</time>
      </trkpt>
      <trkpt lat="43.368" lon="0.78311">
        <ele>220</ele>
        <time>2020-08-16T10:11:19+02:00</time>
      </trkpt>
      <trkpt lat="43.36787" lon="0.78291">
        <ele>222</ele>
        <time>2020-08-16T10:11:42+02:00</time>
      </trkpt>
      <trkpt lat="43.36778" lon="0.78277">
        <ele>223</ele>
        <time>2020-08-16T10:12:03+02:00</time>
      </trkpt>
      <trkpt lat="43.36766" lon="0.78255">
        <ele>225</ele>
        <time>2020-08-16T10:12:22+02:00</time>
      </trkpt>
      <trkpt lat="43.36762" lon="0.78238">
        <ele>226</ele>
        <time>2020-08-16T10:12:37+02:00</time>
      </trkpt>
      <trkpt lat="43.36757" lon="0.78216">
        <ele>228</ele>
        <time>2020-08-16T10:12:54+02:00</time>
      </trkpt>
      <trkpt lat="43.36752" lon="0.78192">
        <ele>230</ele>
        <time>2020-08-16T10:13:11+02:00</time>
      </trkpt>
      <trkpt lat="43.36748" lon="0.7817">
        <ele>230</ele>
        <time>2020-08-16T10:13:28+02:00</time>
      </trkpt>
      <trkpt lat="43.3674" lon="0.7815">
        <ele>231</ele>
        <time>2020-08-16T10:13:46+02:00</time>
      </trkpt>
      <trkpt lat="43.36731" lon="0.78128">
        <ele>231</ele>
        <time>2020-08-16T10:14:06+02:00</time>
      </trkpt>
      <trkpt lat="43.36724" lon="0.78112">
        <ele>232</ele>
        <time>2020-08-16T10:14:20+02:00</time>
      </trkpt>
      <trkpt lat="43.36713" lon="0.78092">
        <ele>234</ele>
        <time>2020-08-16T10:14:37+02:00</time>
      </trkpt>
      <trkpt lat="43.36705" lon="0.78077">
        <ele>235</ele>
        <time>2020-08-16T10:14:50+02:00</time>
      </trkpt>
      <trkpt lat="43.36695" lon="0.78055">
        <ele>237</ele>
        <time>2020-08-16T10:15:08+02:00</time>
      </trkpt>
      <trkpt lat="43.36686" lon="0.78037">
        <ele>238</ele>
        <time>2020-08-16T10:15:24+02:00</time>
      </trkpt>
      <trkpt lat="43.36677" lon="0.78021">
        <ele>239</ele>
        <time>2020-08-16T10:15:38+02:00</time>
      </trkpt>
      <trkpt lat="43.36666" lon="0.78005">
        <ele>240</ele>
        <time>2020-08-16T10:15:54+02:00</time>
      </trkpt>
      <trkpt lat="43.36657" lon="0.7799">
        <ele>240</ele>
        <time>2020-08-16T10:16:08+02:00</time>
      </trkpt>
      <trkpt lat="43.3665" lon="0.77975">
        <ele>240</ele>
        <time>2020-08-16T10:16:23+02:00</time>
      </trkpt>
      <trkpt lat="43.36644" lon="0.77955">
        <ele>240</ele>
        <time>2020-08-16T10:16:37+02:00</time>
      </trkpt>
      <trkpt lat="43.36638" lon="0.77934">
        <ele>240</ele>
        <time>2020-08-16T10:16:52+02:00</time>
      </trkpt>
      <trkpt lat="43.36629" lon="0.77906">
        <ele>241</ele>
        <time>2020-08-16T10:17:10+02:00</time>
      </trkpt>
      <trkpt lat="43.36621" lon="0.77881">
        <ele>242</ele>
        <time>2020-08-16T10:17:24+02:00</time>
      </trkpt>
      <trkpt lat="43.36613" lon="0.77853">
        <ele>243</ele>
        <time>2020-08-16T10:17:41+02:00</time>
      </trkpt>
      <trkpt lat="43.36607" lon="0.77833">
        <ele>243</ele>
        <time>2020-08-16T10:17:55+02:00</time>
      </trkpt>
      <trkpt lat="43.36601" lon="0.77809">
        <ele>244</ele>
        <time>2020-08-16T10:18:12+02:00</time>
      </trkpt>
      <trkpt lat="43.36596" lon="0.77785">
        <ele>245</ele>
        <time>2020-08-16T10:18:28+02:00</time>
      </trkpt>
      <trkpt lat="43.36594" lon="0.77763">
        <ele>246</ele>
        <time>2020-08-16T10:18:42+02:00</time>
      </trkpt>
      <trkpt lat="43.36592" lon="0.77735">
        <ele>247</ele>
        <time>2020-08-16T10:19:05+02:00</time>
      </trkpt>
      <trkpt lat="43.36589" lon="0.77719">
        <ele>248</ele>
        <time>2020-08-16T10:19:14+02:00</time>
      </trkpt>
      <trkpt lat="43.36584" lon="0.77699">
        <ele>249</ele>
        <time>2020-08-16T10:19:27+02:00</time>
      </trkpt>
      <trkpt lat="43.36577" lon="0.77677">
        <ele>249</ele>
        <time>2020-08-16T10:19:42+02:00</time>
      </trkpt>
      <trkpt lat="43.36569" lon="0.7765">
        <ele>249</ele>
        <time>2020-08-16T10:20:01+02:00</time>
      </trkpt>
      <trkpt lat="43.36558" lon="0.77627">
        <ele>250</ele>
        <time>2020-08-16T10:20:17+02:00</time>
      </trkpt>
      <trkpt lat="43.36554" lon="0.77616">
        <ele>250</ele>
        <time>2020-08-16T10:20:25+02:00</time>
      </trkpt>
      <trkpt lat="43.36542" lon="0.77598">
        <ele>250</ele>
        <time>2020-08-16T10:20:40+02:00</time>
      </trkpt>
      <trkpt lat="43.36527" lon="0.77581">
        <ele>250</ele>
        <time>2020-08-16T10:20:57+02:00</time>
      </trkpt>
      <trkpt lat="43.36512" lon="0.77561">
        <ele>251</ele>
        <time>2020-08-16T10:24:20+02:00</time>
      </trkpt>
      <trkpt lat="43.36497" lon="0.77545">
        <ele>251</ele>
        <time>2020-08-16T10:24:47+02:00</time>
      </trkpt>
      <trkpt lat="43.36482" lon="0.77528">
        <ele>252</ele>
        <time>2020-08-16T10:25:06+02:00</time>
      </trkpt>
      <trkpt lat="43.36468" lon="0.77514">
        <ele>252</ele>
        <time>2020-08-16T10:25:22+02:00</time>
      </trkpt>
      <trkpt lat="43.36455" lon="0.77497">
        <ele>253</ele>
        <time>2020-08-16T10:25:38+02:00</time>
      </trkpt>
      <trkpt lat="43.36438" lon="0.7748">
        <ele>253</ele>
        <time>2020-08-16T10:26:10+02:00</time>
      </trkpt>
      <trkpt lat="43.36424" lon="0.77465">
        <ele>254</ele>
        <time>2020-08-16T10:26:25+02:00</time>
      </trkpt>
      <trkpt lat="43.36409" lon="0.7745">
        <ele>255</ele>
        <time>2020-08-16T10:26:39+02:00</time>
      </trkpt>
      <trkpt lat="43.36395" lon="0.77435">
        <ele>256</ele>
        <time>2020-08-16T10:26:54+02:00</time>
      </trkpt>
      <trkpt lat="43.3638" lon="0.77419">
        <ele>257</ele>
        <time>2020-08-16T10:27:12+02:00</time>
      </trkpt>
      <trkpt lat="43.36364" lon="0.774">
        <ele>258</ele>
        <time>2020-08-16T10:27:31+02:00</time>
      </trkpt>
      <trkpt lat="43.36347" lon="0.77382">
        <ele>260</ele>
        <time>2020-08-16T10:27:47+02:00</time>
      </trkpt>
      <trkpt lat="43.36349" lon="0.77368">
        <ele>260</ele>
        <time>2020-08-16T10:27:56+02:00</time>
      </trkpt>
      <trkpt lat="43.36357" lon="0.77338">
        <ele>260</ele>
        <time>2020-08-16T10:28:14+02:00</time>
      </trkpt>
      <trkpt lat="43.36367" lon="0.77311">
        <ele>260</ele>
        <time>2020-08-16T10:28:31+02:00</time>
      </trkpt>
      <trkpt lat="43.36376" lon="0.77288">
        <ele>259</ele>
        <time>2020-08-16T10:28:48+02:00</time>
      </trkpt>
      <trkpt lat="43.36384" lon="0.7726">
        <ele>259</ele>
        <time>2020-08-16T10:29:06+02:00</time>
      </trkpt>
      <trkpt lat="43.36393" lon="0.77234">
        <ele>258</ele>
        <time>2020-08-16T10:30:05+02:00</time>
      </trkpt>
      <trkpt lat="43.36395" lon="0.77218">
        <ele>258</ele>
        <time>2020-08-16T10:30:30+02:00</time>
      </trkpt>
      <trkpt lat="43.36405" lon="0.77184">
        <ele>256</ele>
        <time>2020-08-16T10:30:52+02:00</time>
      </trkpt>
      <trkpt lat="43.36408" lon="0.77176">
        <ele>256</ele>
        <time>2020-08-16T10:30:57+02:00</time>
      </trkpt>
      <trkpt lat="43.36415" lon="0.77147">
        <ele>257</ele>
        <time>2020-08-16T10:31:14+02:00</time>
      </trkpt>
      <trkpt lat="43.36424" lon="0.77119">
        <ele>257</ele>
        <time>2020-08-16T10:31:31+02:00</time>
      </trkpt>
      <trkpt lat="43.36437" lon="0.77092">
        <ele>258</ele>
        <time>2020-08-16T10:31:50+02:00</time>
      </trkpt>
      <trkpt lat="43.36445" lon="0.77078">
        <ele>258</ele>
        <time>2020-08-16T10:32:02+02:00</time>
      </trkpt>
      <trkpt lat="43.3646" lon="0.77056">
        <ele>258</ele>
        <time>2020-08-16T10:32:19+02:00</time>
      </trkpt>
      <trkpt lat="43.36476" lon="0.77032">
        <ele>257</ele>
        <time>2020-08-16T10:32:38+02:00</time>
      </trkpt>
      <trkpt lat="43.36488" lon="0.77008">
        <ele>256</ele>
        <time>2020-08-16T10:32:55+02:00</time>
      </trkpt>
      <trkpt lat="43.36499" lon="0.76983">
        <ele>256</ele>
        <time>2020-08-16T10:33:12+02:00</time>
      </trkpt>
      <trkpt lat="43.36507" lon="0.76957">
        <ele>256</ele>
        <time>2020-08-16T10:33:29+02:00</time>
      </trkpt>
      <trkpt lat="43.36515" lon="0.76926">
        <ele>256</ele>
        <time>2020-08-16T10:33:47+02:00</time>
      </trkpt>
      <trkpt lat="43.3652" lon="0.76901">
        <ele>255</ele>
        <time>2020-08-16T10:34:02+02:00</time>
      </trkpt>
      <trkpt lat="43.36523" lon="0.76891">
        <ele>255</ele>
        <time>2020-08-16T10:34:08+02:00</time>
      </trkpt>
      <trkpt lat="43.36526" lon="0.76868">
        <ele>254</ele>
        <time>2020-08-16T10:34:22+02:00</time>
      </trkpt>
      <trkpt lat="43.3653" lon="0.76843">
        <ele>254</ele>
        <time>2020-08-16T10:34:37+02:00</time>
      </trkpt>
      <trkpt lat="43.36532" lon="0.76824">
        <ele>254</ele>
        <time>2020-08-16T10:34:47+02:00</time>
      </trkpt>
      <trkpt lat="43.36534" lon="0.76798">
        <ele>253</ele>
        <time>2020-08-16T10:35:05+02:00</time>
      </trkpt>
      <trkpt lat="43.36536" lon="0.76785">
        <ele>253</ele>
        <time>2020-08-16T10:35:12+02:00</time>
      </trkpt>
      <trkpt lat="43.36537" lon="0.76757">
        <ele>252</ele>
        <time>2020-08-16T10:35:29+02:00</time>
      </trkpt>
      <trkpt lat="43.36542" lon="0.76719">
        <ele>252</ele>
        <time>2020-08-16T10:35:50+02:00</time>
      </trkpt>
      <trkpt lat="43.36542" lon="0.76716">
        <ele>252</ele>
        <time>2020-08-16T10:35:52+02:00</time>
      </trkpt>
      <trkpt lat="43.36549" lon="0.76688">
        <ele>251</ele>
        <time>2020-08-16T10:36:09+02:00</time>
      </trkpt>
      <trkpt lat="43.36555" lon="0.76663">
        <ele>250</ele>
        <time>2020-08-16T10:36:26+02:00</time>
      </trkpt>
      <trkpt lat="43.36561" lon="0.76645">
        <ele>249</ele>
        <time>2020-08-16T10:36:36+02:00</time>
      </trkpt>
      <trkpt lat="43.36571" lon="0.76618">
        <ele>248</ele>
        <time>2020-08-16T10:36:54+02:00</time>
      </trkpt>
      <trkpt lat="43.36574" lon="0.76608">
        <ele>248</ele>
        <time>2020-08-16T10:37:09+02:00</time>
      </trkpt>
      <trkpt lat="43.36582" lon="0.76586">
        <ele>247</ele>
        <time>2020-08-16T10:37:24+02:00</time>
      </trkpt>
      <trkpt lat="43.36599" lon="0.76562">
        <ele>245</ele>
        <time>2020-08-16T10:37:43+02:00</time>
      </trkpt>
      <trkpt lat="43.36618" lon="0.76549">
        <ele>244</ele>
        <time>2020-08-16T10:38:01+02:00</time>
      </trkpt>
      <trkpt lat="43.36621" lon="0.76548">
        <ele>243</ele>
        <time>2020-08-16T10:38:03+02:00</time>
      </trkpt>
      <trkpt lat="43.36649" lon="0.76539">
        <ele>243</ele>
        <time>2020-08-16T10:38:26+02:00</time>
      </trkpt>
      <trkpt lat="43.36673" lon="0.76529">
        <ele>244</ele>
        <time>2020-08-16T10:38:47+02:00</time>
      </trkpt>
      <trkpt lat="43.36692" lon="0.76522">
        <ele>244</ele>
        <time>2020-08-16T10:39:03+02:00</time>
      </trkpt>
      <trkpt lat="43.367" lon="0.76508">
        <ele>244</ele>
        <time>2020-08-16T10:39:14+02:00</time>
      </trkpt>
      <trkpt lat="43.36702" lon="0.76475">
        <ele>245</ele>
        <time>2020-08-16T10:39:33+02:00</time>
      </trkpt>
      <trkpt lat="43.36703" lon="0.76452">
        <ele>246</ele>
        <time>2020-08-16T10:39:49+02:00</time>
      </trkpt>
      <trkpt lat="43.36705" lon="0.76423">
        <ele>246</ele>
        <time>2020-08-16T10:40:06+02:00</time>
      </trkpt>
      <trkpt lat="43.36715" lon="0.76398">
        <ele>247</ele>
        <time>2020-08-16T10:40:24+02:00</time>
      </trkpt>
      <trkpt lat="43.36727" lon="0.76371">
        <ele>249</ele>
        <time>2020-08-16T10:40:44+02:00</time>
      </trkpt>
      <trkpt lat="43.36736" lon="0.76345">
        <ele>250</ele>
        <time>2020-08-16T10:41:03+02:00</time>
      </trkpt>
      <trkpt lat="43.36746" lon="0.76322">
        <ele>250</ele>
        <time>2020-08-16T10:41:19+02:00</time>
      </trkpt>
      <trkpt lat="43.36755" lon="0.76296">
        <ele>250</ele>
        <time>2020-08-16T10:41:37+02:00</time>
      </trkpt>
      <trkpt lat="43.36739" lon="0.76274">
        <ele>249</ele>
        <time>2020-08-16T10:41:59+02:00</time>
      </trkpt>
      <trkpt lat="43.36719" lon="0.76271">
        <ele>248</ele>
        <time>2020-08-16T10:42:17+02:00</time>
      </trkpt>
      <trkpt lat="43.36704" lon="0.76268">
        <ele>246</ele>
        <time>2020-08-16T10:42:31+02:00</time>
      </trkpt>
      <trkpt lat="43.36683" lon="0.76267">
        <ele>244</ele>
        <time>2020-08-16T10:42:48+02:00</time>
      </trkpt>
      <trkpt lat="43.36663" lon="0.76266">
        <ele>242</ele>
        <time>2020-08-16T10:43:04+02:00</time>
      </trkpt>
      <trkpt lat="43.36643" lon="0.76263">
        <ele>241</ele>
        <time>2020-08-16T10:43:55+02:00</time>
      </trkpt>
      <trkpt lat="43.36622" lon="0.7626">
        <ele>240</ele>
        <time>2020-08-16T10:44:13+02:00</time>
      </trkpt>
      <trkpt lat="43.36611" lon="0.76231">
        <ele>238</ele>
        <time>2020-08-16T10:44:33+02:00</time>
      </trkpt>
      <trkpt lat="43.36615" lon="0.76198">
        <ele>237</ele>
        <time>2020-08-16T10:44:54+02:00</time>
      </trkpt>
      <trkpt lat="43.36619" lon="0.76166">
        <ele>235</ele>
        <time>2020-08-16T10:45:14+02:00</time>
      </trkpt>
      <trkpt lat="43.36622" lon="0.76133">
        <ele>233</ele>
        <time>2020-08-16T10:45:34+02:00</time>
      </trkpt>
      <trkpt lat="43.36627" lon="0.76096">
        <ele>231</ele>
        <time>2020-08-16T10:45:58+02:00</time>
      </trkpt>
      <trkpt lat="43.36631" lon="0.76066">
        <ele>230</ele>
        <time>2020-08-16T10:46:17+02:00</time>
      </trkpt>
      <trkpt lat="43.36632" lon="0.76055">
        <ele>229</ele>
        <time>2020-08-16T10:46:24+02:00</time>
      </trkpt>
      <trkpt lat="43.36632" lon="0.76027">
        <ele>229</ele>
        <time>2020-08-16T10:46:41+02:00</time>
      </trkpt>
      <trkpt lat="43.36627" lon="0.76007">
        <ele>228</ele>
        <time>2020-08-16T10:46:56+02:00</time>
      </trkpt>
      <trkpt lat="43.36618" lon="0.75982">
        <ele>228</ele>
        <time>2020-08-16T10:47:12+02:00</time>
      </trkpt>
      <trkpt lat="43.36609" lon="0.75958">
        <ele>226</ele>
        <time>2020-08-16T10:47:27+02:00</time>
      </trkpt>
      <trkpt lat="43.36605" lon="0.75929">
        <ele>225</ele>
        <time>2020-08-16T10:47:44+02:00</time>
      </trkpt>
      <trkpt lat="43.36605" lon="0.75888">
        <ele>224</ele>
        <time>2020-08-16T10:48:06+02:00</time>
      </trkpt>
      <trkpt lat="43.36611" lon="0.75846">
        <ele>222</ele>
        <time>2020-08-16T10:48:31+02:00</time>
      </trkpt>
      <trkpt lat="43.36617" lon="0.75806">
        <ele>222</ele>
        <time>2020-08-16T10:48:54+02:00</time>
      </trkpt>
      <trkpt lat="43.36624" lon="0.75766">
        <ele>221</ele>
        <time>2020-08-16T10:49:18+02:00</time>
      </trkpt>
      <trkpt lat="43.36632" lon="0.75725">
        <ele>221</ele>
        <time>2020-08-16T10:49:43+02:00</time>
      </trkpt>
      <trkpt lat="43.36637" lon="0.75686">
        <ele>220</ele>
        <time>2020-08-16T10:50:07+02:00</time>
      </trkpt>
      <trkpt lat="43.36643" lon="0.75643">
        <ele>219</ele>
        <time>2020-08-16T10:50:32+02:00</time>
      </trkpt>
      <trkpt lat="43.36651" lon="0.75604">
        <ele>217</ele>
        <time>2020-08-16T10:50:56+02:00</time>
      </trkpt>
      <trkpt lat="43.36655" lon="0.75569">
        <ele>216</ele>
        <time>2020-08-16T10:51:17+02:00</time>
      </trkpt>
      <trkpt lat="43.3666" lon="0.75565">
        <ele>217</ele>
        <time>2020-08-16T10:51:23+02:00</time>
      </trkpt>
      <trkpt lat="43.36679" lon="0.75572">
        <ele>218</ele>
        <time>2020-08-16T10:51:43+02:00</time>
      </trkpt>
      <trkpt lat="43.3669" lon="0.75585">
        <ele>220</ele>
        <time>2020-08-16T10:52:01+02:00</time>
      </trkpt>
      <trkpt lat="43.3669" lon="0.756">
        <ele>221</ele>
        <time>2020-08-16T10:52:15+02:00</time>
      </trkpt>
      <trkpt lat="43.36694" lon="0.75619">
        <ele>224</ele>
        <time>2020-08-16T10:52:34+02:00</time>
      </trkpt>
      <trkpt lat="43.36696" lon="0.7564">
        <ele>227</ele>
        <time>2020-08-16T10:52:53+02:00</time>
      </trkpt>
      <trkpt lat="43.36696" lon="0.75659">
        <ele>229</ele>
        <time>2020-08-16T10:53:14+02:00</time>
      </trkpt>
      <trkpt lat="43.36695" lon="0.75678">
        <ele>232</ele>
        <time>2020-08-16T10:53:32+02:00</time>
      </trkpt>
      <trkpt lat="43.36691" lon="0.75696">
        <ele>233</ele>
        <time>2020-08-16T10:53:50+02:00</time>
      </trkpt>
      <trkpt lat="43.36686" lon="0.75714">
        <ele>235</ele>
        <time>2020-08-16T10:54:34+02:00</time>
      </trkpt>
      <trkpt lat="43.36691" lon="0.75742">
        <ele>238</ele>
        <time>2020-08-16T10:55:05+02:00</time>
      </trkpt>
      <trkpt lat="43.36696" lon="0.75762">
        <ele>240</ele>
        <time>2020-08-16T10:55:23+02:00</time>
      </trkpt>
      <trkpt lat="43.36701" lon="0.7578">
        <ele>242</ele>
        <time>2020-08-16T10:55:43+02:00</time>
      </trkpt>
      <trkpt lat="43.36706" lon="0.75797">
        <ele>243</ele>
        <time>2020-08-16T10:56:02+02:00</time>
      </trkpt>
      <trkpt lat="43.36714" lon="0.75815">
        <ele>244</ele>
        <time>2020-08-16T10:56:24+02:00</time>
      </trkpt>
      <trkpt lat="43.36723" lon="0.7583">
        <ele>246</ele>
        <time>2020-08-16T10:56:42+02:00</time>
      </trkpt>
      <trkpt lat="43.36733" lon="0.75855">
        <ele>247</ele>
        <time>2020-08-16T11:02:29+02:00</time>
      </trkpt>
      <trkpt lat="43.36739" lon="0.7587">
        <ele>248</ele>
        <time>2020-08-16T11:03:15+02:00</time>
      </trkpt>
      <trkpt lat="43.36753" lon="0.75891">
        <ele>250</ele>
        <time>2020-08-16T11:03:37+02:00</time>
      </trkpt>
      <trkpt lat="43.36766" lon="0.75909">
        <ele>250</ele>
        <time>2020-08-16T11:03:54+02:00</time>
      </trkpt>
      <trkpt lat="43.36779" lon="0.75928">
        <ele>250</ele>
        <time>2020-08-16T11:04:12+02:00</time>
      </trkpt>
      <trkpt lat="43.36786" lon="0.75949">
        <ele>250</ele>
        <time>2020-08-16T11:04:29+02:00</time>
      </trkpt>
      <trkpt lat="43.36794" lon="0.75972">
        <ele>250</ele>
        <time>2020-08-16T11:04:47+02:00</time>
      </trkpt>
      <trkpt lat="43.36798" lon="0.76">
        <ele>250</ele>
        <time>2020-08-16T11:05:06+02:00</time>
      </trkpt>
      <trkpt lat="43.368" lon="0.76027">
        <ele>250</ele>
        <time>2020-08-16T11:05:24+02:00</time>
      </trkpt>
      <trkpt lat="43.368" lon="0.7605">
        <ele>251</ele>
        <time>2020-08-16T11:05:38+02:00</time>
      </trkpt>
      <trkpt lat="43.36801" lon="0.76068">
        <ele>251</ele>
        <time>2020-08-16T11:05:49+02:00</time>
      </trkpt>
      <trkpt lat="43.368" lon="0.76094">
        <ele>251</ele>
        <time>2020-08-16T11:06:05+02:00</time>
      </trkpt>
      <trkpt lat="43.368" lon="0.76122">
        <ele>251</ele>
        <time>2020-08-16T11:06:23+02:00</time>
      </trkpt>
      <trkpt lat="43.368" lon="0.76139">
        <ele>251</ele>
        <time>2020-08-16T11:06:33+02:00</time>
      </trkpt>
      <trkpt lat="43.368" lon="0.76154">
        <ele>251</ele>
        <time>2020-08-16T11:06:43+02:00</time>
      </trkpt>
      <trkpt lat="43.36803" lon="0.76185">
        <ele>252</ele>
        <time>2020-08-16T11:07:02+02:00</time>
      </trkpt>
      <trkpt lat="43.36809" lon="0.76215">
        <ele>252</ele>
        <time>2020-08-16T11:07:39+02:00</time>
      </trkpt>
      <trkpt lat="43.3681" lon="0.76216">
        <ele>252</ele>
        <time>2020-08-16T11:07:40+02:00</time>
      </trkpt>
      <trkpt lat="43.3682" lon="0.76244">
        <ele>253</ele>
        <time>2020-08-16T11:08:01+02:00</time>
      </trkpt>
      <trkpt lat="43.36836" lon="0.76262">
        <ele>254</ele>
        <time>2020-08-16T11:09:12+02:00</time>
      </trkpt>
      <trkpt lat="43.36855" lon="0.76273">
        <ele>255</ele>
        <time>2020-08-16T11:09:39+02:00</time>
      </trkpt>
      <trkpt lat="43.36872" lon="0.76282">
        <ele>256</ele>
        <time>2020-08-16T11:09:58+02:00</time>
      </trkpt>
      <trkpt lat="43.36884" lon="0.76287">
        <ele>257</ele>
        <time>2020-08-16T11:10:12+02:00</time>
      </trkpt>
      <trkpt lat="43.36901" lon="0.76297">
        <ele>257</ele>
        <time>2020-08-16T11:10:29+02:00</time>
      </trkpt>
      <trkpt lat="43.36911" lon="0.76303">
        <ele>258</ele>
        <time>2020-08-16T11:10:38+02:00</time>
      </trkpt>
      <trkpt lat="43.36929" lon="0.76311">
        <ele>258</ele>
        <time>2020-08-16T11:10:55+02:00</time>
      </trkpt>
      <trkpt lat="43.3695" lon="0.76321">
        <ele>259</ele>
        <time>2020-08-16T11:11:14+02:00</time>
      </trkpt>
      <trkpt lat="43.3697" lon="0.76329">
        <ele>261</ele>
        <time>2020-08-16T11:11:31+02:00</time>
      </trkpt>
      <trkpt lat="43.3699" lon="0.76337">
        <ele>264</ele>
        <time>2020-08-16T11:11:48+02:00</time>
      </trkpt>
      <trkpt lat="43.37006" lon="0.76345">
        <ele>266</ele>
        <time>2020-08-16T11:12:02+02:00</time>
      </trkpt>
      <trkpt lat="43.37026" lon="0.76355">
        <ele>269</ele>
        <time>2020-08-16T11:12:20+02:00</time>
      </trkpt>
      <trkpt lat="43.37042" lon="0.76365">
        <ele>270</ele>
        <time>2020-08-16T11:12:35+02:00</time>
      </trkpt>
      <trkpt lat="43.37053" lon="0.76371">
        <ele>270</ele>
        <time>2020-08-16T11:12:44+02:00</time>
      </trkpt>
      <trkpt lat="43.37071" lon="0.76383">
        <ele>269</ele>
        <time>2020-08-16T11:12:59+02:00</time>
      </trkpt>
      <trkpt lat="43.37084" lon="0.76396">
        <ele>268</ele>
        <time>2020-08-16T11:13:12+02:00</time>
      </trkpt>
      <trkpt lat="43.371" lon="0.7641">
        <ele>266</ele>
        <time>2020-08-16T11:13:27+02:00</time>
      </trkpt>
      <trkpt lat="43.37118" lon="0.76426">
        <ele>264</ele>
        <time>2020-08-16T11:13:46+02:00</time>
      </trkpt>
      <trkpt lat="43.37134" lon="0.76443">
        <ele>261</ele>
        <time>2020-08-16T11:14:02+02:00</time>
      </trkpt>
      <trkpt lat="43.37154" lon="0.76458">
        <ele>261</ele>
        <time>2020-08-16T11:14:20+02:00</time>
      </trkpt>
      <trkpt lat="43.37166" lon="0.76464">
        <ele>262</ele>
        <time>2020-08-16T11:14:32+02:00</time>
      </trkpt>
      <trkpt lat="43.37181" lon="0.76465">
        <ele>263</ele>
        <time>2020-08-16T11:14:47+02:00</time>
      </trkpt>
      <trkpt lat="43.37192" lon="0.76461">
        <ele>264</ele>
        <time>2020-08-16T11:15:00+02:00</time>
      </trkpt>
      <trkpt lat="43.37213" lon="0.76453">
        <ele>266</ele>
        <time>2020-08-16T11:15:39+02:00</time>
      </trkpt>
      <trkpt lat="43.37226" lon="0.76463">
        <ele>269</ele>
        <time>2020-08-16T11:15:50+02:00</time>
      </trkpt>
      <trkpt lat="43.37238" lon="0.7649">
        <ele>270</ele>
        <time>2020-08-16T11:16:08+02:00</time>
      </trkpt>
      <trkpt lat="43.37249" lon="0.76512">
        <ele>270</ele>
        <time>2020-08-16T11:16:24+02:00</time>
      </trkpt>
      <trkpt lat="43.37261" lon="0.76537">
        <ele>273</ele>
        <time>2020-08-16T11:16:42+02:00</time>
      </trkpt>
      <trkpt lat="43.37265" lon="0.76549">
        <ele>274</ele>
        <time>2020-08-16T11:16:51+02:00</time>
      </trkpt>
      <trkpt lat="43.37281" lon="0.76566">
        <ele>278</ele>
        <time>2020-08-16T11:17:28+02:00</time>
      </trkpt>
      <trkpt lat="43.37294" lon="0.76577">
        <ele>278</ele>
        <time>2020-08-16T11:17:50+02:00</time>
      </trkpt>
      <trkpt lat="43.37307" lon="0.76583">
        <ele>278</ele>
        <time>2020-08-16T11:18:03+02:00</time>
      </trkpt>
      <trkpt lat="43.37325" lon="0.76579">
        <ele>276</ele>
        <time>2020-08-16T11:19:24+02:00</time>
      </trkpt>
      <trkpt lat="43.37326" lon="0.76565">
        <ele>276</ele>
        <time>2020-08-16T11:19:39+02:00</time>
      </trkpt>
      <trkpt lat="43.37329" lon="0.76541">
        <ele>277</ele>
        <time>2020-08-16T11:19:58+02:00</time>
      </trkpt>
      <trkpt lat="43.37333" lon="0.76512">
        <ele>278</ele>
        <time>2020-08-16T11:20:29+02:00</time>
      </trkpt>
      <trkpt lat="43.37329" lon="0.76485">
        <ele>279</ele>
        <time>2020-08-16T11:21:04+02:00</time>
      </trkpt>
      <trkpt lat="43.37329" lon="0.76468">
        <ele>279</ele>
        <time>2020-08-16T11:21:22+02:00</time>
      </trkpt>
      <trkpt lat="43.3732" lon="0.76447">
        <ele>280</ele>
        <time>2020-08-16T11:21:48+02:00</time>
      </trkpt>
    </trkseg>
  </trk>
</gpx>